Time;durP1;ratioP1;P1;durP2;ratioP2;P2;SDS_P1;SDS_P2;PMS_P1;PMS_P2;Temp;Humidity;BMP_temperature;BMP_pressure;BME280_temperature;BME280_humidity;BME280_pressure;Samples;Min_cycle;Max_cycle;Signal;HPM_P1;HPM_P2
2022/04/29 00:00:23;;;;;;;9.68;8.77;;;20.80;99.90;;;;;;5049004;28;20036;-69
2022/04/29 00:02:51;;;;;;;9.18;8.18;;;21.00;99.90;;;;;;5049449;28;20613;-64
2022/04/29 00:05:19;;;;;;;10.05;8.85;;;21.30;99.90;;;;;;5050966;28;20486;-69
2022/04/29 00:07:47;;;;;;;9.55;8.65;;;21.50;99.90;;;;;;5050384;28;20047;-69
2022/04/29 00:10:16;;;;;;;8.93;8.13;;;21.70;99.90;;;;;;5049393;28;20050;-63
2022/04/29 00:12:46;;;;;;;8.07;7.28;;;21.80;99.90;;;;;;5050102;28;20207;-69
2022/04/29 00:15:15;;;;;;;11.50;10.50;;;22.10;99.90;;;;;;5049819;28;21301;-63
2022/04/29 00:17:43;;;;;;;8.38;7.57;;;22.20;99.90;;;;;;5048386;28;20071;-69
2022/04/29 00:20:11;;;;;;;7.50;6.80;;;22.40;99.90;;;;;;5050340;28;20473;-62
2022/04/29 00:22:38;;;;;;;13.63;11.20;;;22.60;99.90;;;;;;5047607;28;20020;-69
2022/04/29 00:25:06;;;;;;;11.00;9.80;;;22.70;99.90;;;;;;5049345;28;20178;-62
2022/04/29 00:27:33;;;;;;;5.15;4.63;;;22.60;99.90;;;;;;5048461;28;20110;-70
2022/04/29 00:30:01;;;;;;;5.03;3.50;;;22.50;99.90;;;;;;5048961;28;20031;-62
2022/04/29 00:32:28;;;;;;;4.57;4.18;;;22.50;99.90;;;;;;5048591;28;20037;-64
2022/04/29 00:34:55;;;;;;;6.50;4.32;;;22.30;99.90;;;;;;5052009;28;20029;-69
2022/04/29 00:37:22;;;;;;;6.68;4.07;;;22.40;99.90;;;;;;5048356;28;20057;-69
2022/04/29 00:39:48;;;;;;;5.15;4.60;;;22.30;99.90;;;;;;5047711;28;20345;-70
2022/04/29 00:42:17;;;;;;;5.40;4.18;;;22.30;99.90;;;;;;5050675;28;20044;-62
2022/04/29 00:44:46;;;;;;;5.65;4.07;;;22.60;99.90;;;;;;5047775;28;20115;-69
2022/04/29 00:47:18;;;;;;;6.15;4.07;;;22.60;99.90;;;;;;5050772;28;20095;-63
2022/04/29 00:49:45;;;;;;;;;;;22.70;99.90;;;;;;5051193;28;20104;-69
2022/04/29 00:52:18;;;;;;;6.22;4.30;;;22.80;99.90;;;;;;5050475;28;19909;-63
2022/04/29 00:54:58;;;;;;;5.47;4.80;;;23.00;99.90;;;;;;5050974;28;20032;-63
2022/04/29 00:57:40;;;;;;;5.90;4.97;;;23.10;99.90;;;;;;5051692;28;20537;-63
2022/04/29 01:00:11;;;;;;;4.13;3.72;;;23.20;99.90;;;;;;5052707;28;20035;-70
2022/04/29 01:02:54;;;;;;;4.30;3.78;;;23.40;99.90;;;;;;5055319;28;20742;-69
2022/04/29 01:05:23;;;;;;;4.35;3.00;;;23.50;99.90;;;;;;5054675;28;20040;-64
2022/04/29 01:07:51;;;;;;;3.83;2.45;;;23.60;99.90;;;;;;5055124;28;20499;-70
2022/04/29 01:10:23;;;;;;;4.03;3.63;;;23.60;99.90;;;;;;5055055;28;20438;-71
2022/04/29 01:12:59;;;;;;;6.13;5.47;;;23.70;99.90;;;;;;5055715;28;20306;-64
2022/04/29 01:15:27;;;;;;;3.47;3.10;;;23.90;99.90;;;;;;5055873;28;20116;-64
2022/04/29 01:18:06;;;;;;;2.90;2.58;;;23.80;99.90;;;;;;5056323;28;20458;-64
2022/04/29 01:20:34;;;;;;;2.40;1.85;;;23.90;99.90;;;;;;5055187;28;20119;-70
2022/04/29 01:23:09;;;;;;;3.00;1.77;;;23.90;99.90;;;;;;5055541;28;20040;-70
2022/04/29 01:25:37;;;;;;;2.72;2.08;;;24.10;99.90;;;;;;5054246;28;20029;-70
2022/04/29 01:28:05;;;;;;;2.97;1.90;;;24.20;99.90;;;;;;5054720;28;20021;-69
2022/04/29 01:30:32;;;;;;;3.00;1.80;;;24.20;99.90;;;;;;5055151;28;20501;-64
2022/04/29 01:33:01;;;;;;;3.05;2.03;;;24.40;99.90;;;;;;5054193;28;20151;-63
2022/04/29 01:35:28;;;;;;;3.60;2.17;;;24.50;99.90;;;;;;5055173;28;20050;-64
2022/04/29 01:37:55;;;;;;;2.20;1.83;;;24.50;99.90;;;;;;5053761;28;20098;-70
2022/04/29 01:40:22;;;;;;;2.30;2.10;;;24.50;99.90;;;;;;5054720;28;20024;-64
2022/04/29 01:42:49;;;;;;;2.35;2.15;;;24.40;99.90;;;;;;5051384;28;20024;-64
2022/04/29 01:45:16;;;;;;;5.45;2.45;;;24.50;99.90;;;;;;5055164;28;20040;-70
2022/04/29 01:47:43;;;;;;;4.35;2.40;;;24.50;99.90;;;;;;5054398;28;20071;-64
2022/04/29 01:50:10;;;;;;;4.65;2.42;;;24.50;99.90;;;;;;5053630;28;20082;-69
2022/04/29 01:52:37;;;;;;;3.75;2.15;;;24.20;99.90;;;;;;5052723;28;20024;-64
2022/04/29 01:55:05;;;;;;;4.30;2.40;;;23.90;99.90;;;;;;5053698;28;20025;-68
2022/04/29 01:57:32;;;;;;;4.63;2.80;;;23.90;99.90;;;;;;5051293;28;20067;-70
2022/04/29 01:59:59;;;;;;;3.72;2.28;;;24.10;99.90;;;;;;5053567;28;20020;-70
2022/04/29 02:02:26;;;;;;;3.22;2.45;;;24.10;99.90;;;;;;5053055;28;20029;-64
2022/04/29 02:04:53;;;;;;;4.00;2.47;;;24.20;99.90;;;;;;5055760;28;20031;-69
2022/04/29 02:07:20;;;;;;;3.00;2.70;;;24.40;99.90;;;;;;5052597;28;20108;-63
2022/04/29 02:09:47;;;;;;;4.05;2.28;;;24.50;99.90;;;;;;5054021;28;21020;-63
2022/04/29 02:12:15;;;;;;;4.15;2.20;;;24.60;99.90;;;;;;5053606;28;20020;-64
2022/04/29 02:14:43;;;;;;;2.72;2.53;;;24.80;99.90;;;;;;5052319;28;20060;-69
2022/04/29 02:17:11;;;;;;;3.30;2.30;;;24.90;99.90;;;;;;5054832;28;20029;-64
2022/04/29 02:19:38;;;;;;;2.92;2.33;;;24.80;99.90;;;;;;5054333;28;20064;-70
2022/04/29 02:22:08;;;;;;;5.05;2.88;;;24.50;99.90;;;;;;5053086;28;20108;-71
2022/04/29 02:24:35;;;;;;;3.63;2.40;;;24.40;99.90;;;;;;5050849;28;20475;-70
2022/04/29 02:27:04;;;;;;;4.47;2.60;;;24.50;99.90;;;;;;5054723;28;20021;-64
2022/04/29 02:29:31;;;;;;;4.13;3.03;;;24.60;99.90;;;;;;5052102;28;20020;-70
2022/04/29 02:31:58;;;;;;;4.65;2.70;;;24.70;99.90;;;;;;5053737;28;20025;-70
2022/04/29 02:34:25;;;;;;;6.47;2.83;;;24.90;99.90;;;;;;5053777;28;20029;-63
2022/04/29 02:36:53;;;;;;;4.53;2.47;;;25.30;99.90;;;;;;5053388;28;20029;-64
2022/04/29 02:39:21;;;;;;;4.93;2.53;;;25.90;99.90;;;;;;5053041;28;20060;-65
2022/04/29 02:41:48;;;;;;;3.78;1.88;;;26.30;99.90;;;;;;5054214;28;20109;-70
2022/04/29 02:44:15;;;;;;;3.75;2.13;;;26.50;99.90;;;;;;5050281;28;20071;-64
2022/04/29 02:49:27;;;;;;;4.22;2.15;;;27.00;99.90;;;;;;5051844;28;20075;-69
2022/04/29 02:51:54;;;;;;;2.67;2.10;;;27.20;99.90;;;;;;5053352;28;20300;-69
2022/04/29 02:54:22;;;;;;;2.22;1.90;;;27.40;99.90;;;;;;5053480;28;20364;-64
2022/04/29 02:56:51;;;;;;;3.72;2.20;;;27.50;99.90;;;;;;5053669;28;20652;-69
2022/04/29 02:59:21;;;;;;;2.60;2.00;;;27.60;99.90;;;;;;5051973;28;20025;-64
2022/04/29 03:01:48;;;;;;;3.42;1.85;;;27.80;99.90;;;;;;5053480;28;20094;-65
2022/04/29 03:04:16;;;;;;;10.27;9.18;;;28.00;99.90;;;;;;5050341;28;20021;-63
2022/04/29 03:06:43;;;;;;;7.60;4.80;;;28.20;99.90;;;;;;5050886;28;20033;-70
2022/04/29 03:09:10;;;;;;;4.18;3.78;;;28.30;99.90;;;;;;5052188;28;20025;-63
2022/04/29 03:11:38;;;;;;;5.03;4.00;;;28.40;99.90;;;;;;5052110;28;20116;-63
2022/04/29 03:14:05;;;;;;;2.63;2.28;;;28.40;99.90;;;;;;5052279;28;20592;-64
2022/04/29 03:16:33;;;;;;;2.30;1.90;;;28.70;99.90;;;;;;5052687;28;20463;-64
2022/04/29 03:19:00;;;;;;;1.88;1.48;;;28.80;99.90;;;;;;5052241;28;20024;-68
2022/04/29 03:21:27;;;;;;;6.78;6.07;;;28.70;99.90;;;;;;5052555;28;20040;-64
2022/04/29 03:23:55;;;;;;;8.18;7.28;;;28.80;99.90;;;;;;5052380;28;20112;-64
2022/04/29 03:26:22;;;;;;;8.25;5.85;;;28.90;99.90;;;;;;5052663;28;20023;-70
2022/04/29 03:28:49;;;;;;;6.60;4.47;;;29.10;99.90;;;;;;5049481;28;20013;-64
2022/04/29 03:31:16;;;;;;;2.97;2.47;;;29.10;99.90;;;;;;5051227;28;20067;-64
2022/04/29 03:33:43;;;;;;;2.60;1.92;;;29.30;99.90;;;;;;5048498;28;20620;-64
2022/04/29 03:36:10;;;;;;;3.00;1.70;;;29.30;99.90;;;;;;5048716;28;20060;-63
2022/04/29 03:38:37;;;;;;;1.90;1.63;;;29.40;99.90;;;;;;5050195;28;20052;-69
2022/04/29 03:41:05;;;;;;;3.55;1.95;;;29.40;99.90;;;;;;5053373;28;20036;-63
2022/04/29 03:43:32;;;;;;;3.65;2.03;;;29.40;99.90;;;;;;5049517;28;20021;-70
2022/04/29 03:45:59;;;;;;;3.00;2.50;;;29.50;99.90;;;;;;5053492;28;20451;-64
2022/04/29 03:48:26;;;;;;;3.63;3.30;;;29.50;99.90;;;;;;5050660;28;20024;-70
2022/04/29 03:50:53;;;;;;;6.32;5.70;;;29.60;99.90;;;;;;5050858;28;20534;-69
2022/04/29 03:53:23;;;;;;;4.85;2.30;;;29.70;99.90;;;;;;5049476;28;20056;-64
2022/04/29 03:55:50;;;;;;;3.15;2.40;;;29.90;99.90;;;;;;5051762;28;20036;-65
2022/04/29 03:58:17;;;;;;;3.42;2.83;;;30.00;99.90;;;;;;5049649;28;20048;-64
2022/04/29 04:00:44;;;;;;;2.97;2.63;;;29.90;99.90;;;;;;5051436;28;20541;-65
2022/04/29 04:03:11;;;;;;;3.30;2.83;;;29.80;99.90;;;;;;5051179;28;20419;-69
2022/04/29 04:06:49;;;;;;;3.55;2.30;;;29.70;99.90;;;;;;5051652;28;20077;-70
2022/04/29 04:08:25;;;;;;;2.97;2.55;;;29.70;99.90;;;;;;5051562;28;20029;-64
2022/04/29 04:10:51;;;;;;;2.40;2.20;;;29.60;99.90;;;;;;5052032;28;20578;-64
2022/04/29 04:13:18;;;;;;;2.55;2.33;;;29.60;99.90;;;;;;5052140;28;20027;-69
2022/04/29 04:15:45;;;;;;;3.80;2.67;;;29.70;99.90;;;;;;5052869;28;20107;-71
2022/04/29 04:18:12;;;;;;;3.05;2.58;;;29.70;99.90;;;;;;5051541;28;20457;-64
2022/04/29 04:20:40;;;;;;;4.65;4.20;;;29.70;99.90;;;;;;5052234;28;20430;-64
2022/04/29 04:23:07;;;;;;;4.32;3.92;;;29.80;99.90;;;;;;5051265;28;20021;-70
2022/04/29 04:25:34;;;;;;;8.43;7.53;;;29.90;99.90;;;;;;5051484;28;20017;-64
2022/04/29 04:28:01;;;;;;;8.40;7.68;;;29.90;99.90;;;;;;5050041;28;20032;-69
2022/04/29 04:30:27;;;;;;;2.97;2.60;;;30.00;99.90;;;;;;5050516;28;20081;-70
2022/04/29 04:32:54;;;;;;;4.45;3.13;;;30.10;99.90;;;;;;5051334;28;20386;-71
2022/04/29 04:35:21;;;;;;;2.75;2.30;;;30.10;99.90;;;;;;5050864;28;20029;-64
2022/04/29 04:37:48;;;;;;;6.13;3.58;;;29.90;99.90;;;;;;5050464;28;20097;-64
2022/04/29 04:40:15;;;;;;;3.28;2.40;;;29.90;99.90;;;;;;5050631;28;20036;-64
2022/04/29 04:42:46;;;;;;;3.83;2.67;;;30.00;99.90;;;;;;5049163;28;20059;-64
2022/04/29 04:45:13;;;;;;;4.43;3.30;;;29.90;99.90;;;;;;5050732;28;20484;-64
2022/04/29 04:47:40;;;;;;;6.30;5.70;;;30.00;99.90;;;;;;5049507;28;20043;-70
2022/04/29 04:50:08;;;;;;;8.45;7.65;;;29.90;99.90;;;;;;5050939;28;20016;-64
2022/04/29 04:52:36;;;;;;;4.93;4.30;;;29.80;99.90;;;;;;5048950;28;20119;-71
2022/04/29 04:55:10;;;;;;;4.93;3.95;;;29.70;99.90;;;;;;5050414;28;20031;-70
2022/04/29 04:57:37;;;;;;;4.75;2.65;;;29.80;99.90;;;;;;5048497;28;20507;-64
2022/04/29 05:00:05;;;;;;;4.80;3.45;;;30.00;99.90;;;;;;5050219;28;20667;-70
2022/04/29 05:02:32;;;;;;;5.30;2.60;;;30.00;99.90;;;;;;5049924;28;20063;-69
2022/04/29 05:04:59;;;;;;;4.22;3.70;;;30.10;99.90;;;;;;5050793;28;20444;-70
2022/04/29 05:07:26;;;;;;;7.00;6.30;;;30.00;99.90;;;;;;5050962;28;20477;-69
2022/04/29 05:09:53;;;;;;;5.22;4.72;;;30.00;99.90;;;;;;5049765;28;20405;-72
2022/04/29 05:12:20;;;;;;;10.45;8.55;;;30.00;99.90;;;;;;5052004;28;20048;-69
2022/04/29 05:14:47;;;;;;;3.70;2.50;;;30.00;99.90;;;;;;5049561;28;20144;-73
2022/04/29 05:17:14;;;;;;;2.92;2.40;;;29.90;99.90;;;;;;5050624;28;20035;-62
2022/04/29 05:19:41;;;;;;;2.72;1.90;;;29.90;99.90;;;;;;5047718;28;20082;-64
2022/04/29 05:22:08;;;;;;;1.92;1.73;;;29.60;99.90;;;;;;5050320;28;20480;-67
2022/04/29 05:24:35;;;;;;;4.13;2.63;;;29.40;99.90;;;;;;5050337;28;20112;-68
2022/04/29 05:27:02;;;;;;;4.25;2.80;;;29.60;99.90;;;;;;5051462;28;20029;-69
2022/04/29 05:29:29;;;;;;;3.15;2.13;;;29.50;99.90;;;;;;5050795;28;20087;-65
2022/04/29 05:31:56;;;;;;;3.53;3.22;;;29.40;99.90;;;;;;5050209;28;20044;-65
2022/04/29 05:34:23;;;;;;;3.65;2.17;;;29.60;99.90;;;;;;5047650;28;20147;-63
2022/04/29 05:36:50;;;;;;;2.55;2.35;;;29.90;99.90;;;;;;5049525;28;20039;-65
2022/04/29 05:42:15;;;;;;;3.13;2.60;;;30.10;99.90;;;;;;5050302;28;20052;-65
2022/04/29 05:44:43;;;;;;;6.88;3.00;;;30.20;99.90;;;;;;5047651;28;20039;-69
2022/04/29 05:47:10;;;;;;;4.28;2.28;;;30.40;99.90;;;;;;5051214;28;20060;-66
2022/04/29 05:49:38;;;;;;;2.30;1.45;;;30.50;99.90;;;;;;5054978;28;20067;-69
2022/04/29 05:52:07;;;;;;;2.42;1.20;;;30.50;99.90;;;;;;5053577;28;20236;-70
2022/04/29 05:54:35;;;;;;;4.95;3.38;;;30.70;99.90;;;;;;5053689;28;20117;-69
2022/04/29 05:57:03;;;;;;;3.15;2.83;;;30.80;99.90;;;;;;5053874;28;20111;-65
2022/04/29 05:59:31;;;;;;;3.67;3.00;;;30.60;99.90;;;;;;5053698;28;20345;-66
2022/04/29 06:01:59;;;;;;;2.33;1.85;;;30.70;99.90;;;;;;5054499;28;20036;-65
2022/04/29 06:04:26;;;;;;;1.77;1.30;;;30.80;99.90;;;;;;5054108;28;20609;-68
2022/04/29 06:06:53;;;;;;;2.03;1.08;;;30.80;99.90;;;;;;5053730;28;20406;-66
2022/04/29 06:09:20;;;;;;;2.60;1.40;;;30.70;99.90;;;;;;5054663;28;20075;-66
2022/04/29 06:11:47;;;;;;;2.05;1.20;;;30.60;99.90;;;;;;5053344;28;20434;-66
2022/04/29 06:14:14;;;;;;;3.42;1.00;;;30.70;99.90;;;;;;5054625;28;20032;-66
2022/04/29 06:16:40;;;;;;;2.65;0.93;;;30.80;99.90;;;;;;5054038;28;20031;-70
2022/04/29 06:19:07;;;;;;;1.30;1.20;;;30.90;99.90;;;;;;5053178;28;20039;-70
2022/04/29 06:21:36;;;;;;;2.35;1.20;;;30.90;99.90;;;;;;5051942;28;20036;-65
2022/04/29 06:24:03;;;;;;;1.55;0.93;;;31.00;99.90;;;;;;5053300;28;20036;-70
2022/04/29 06:26:30;;;;;;;2.47;0.93;;;30.90;99.90;;;;;;5053860;28;20820;-66
2022/04/29 06:28:56;;;;;;;1.45;0.90;;;30.80;99.90;;;;;;5053838;28;20396;-66
2022/04/29 06:31:23;;;;;;;1.92;1.35;;;30.70;99.90;;;;;;5053074;28;20104;-67
2022/04/29 06:33:50;;;;;;;1.73;1.10;;;30.50;99.90;;;;;;5053508;28;20037;-70
2022/04/29 06:36:17;;;;;;;2.70;1.20;;;30.50;99.90;;;;;;5052737;28;20060;-68
2022/04/29 06:38:45;;;;;;;1.80;1.15;;;30.30;99.90;;;;;;5052892;28;20047;-70
2022/04/29 06:41:12;;;;;;;1.83;1.23;;;29.90;99.90;;;;;;5054636;28;20056;-68
2022/04/29 06:43:39;;;;;;;2.90;1.35;;;29.90;99.90;;;;;;5050982;28;20029;-65
2022/04/29 06:46:06;;;;;;;4.47;1.20;;;29.80;99.90;;;;;;5054070;28;20025;-65
2022/04/29 06:48:33;;;;;;;2.65;1.52;;;29.60;99.90;;;;;;5051677;28;20024;-65
2022/04/29 06:51:00;;;;;;;8.82;7.22;;;29.10;99.90;;;;;;5052744;28;20029;-66
2022/04/29 06:53:27;;;;;;;4.60;2.60;;;28.80;99.90;;;;;;5051330;28;20032;-65
2022/04/29 06:55:55;;;;;;;6.20;5.03;;;28.50;99.90;;;;;;5050528;28;20155;-68
2022/04/29 06:58:21;;;;;;;3.88;2.67;;;28.10;99.90;;;;;;5033896;28;20518;-67
2022/04/29 07:00:48;;;;;;;1.60;1.30;;;27.50;99.90;;;;;;5053575;28;20041;-66
2022/04/29 07:03:15;;;;;;;2.70;1.70;;;27.00;99.90;;;;;;5053221;28;20345;-67
2022/04/29 07:05:42;;;;;;;2.55;1.50;;;26.60;99.90;;;;;;5053758;28;20471;-65
2022/04/29 07:08:10;;;;;;;2.75;1.73;;;26.30;99.90;;;;;;5052342;28;20012;-69
2022/04/29 07:10:37;;;;;;;3.80;1.80;;;25.90;99.90;;;;;;5053104;28;20174;-68
2022/04/29 07:13:03;;;;;;;3.13;1.90;;;25.70;99.90;;;;;;5053872;28;20469;-66
2022/04/29 07:15:31;;;;;;;2.22;1.75;;;25.40;99.90;;;;;;5053652;28;20843;-69
2022/04/29 07:17:57;;;;;;;3.50;1.80;;;25.30;99.90;;;;;;5052877;28;20501;-67
2022/04/29 07:20:25;;;;;;;2.92;1.73;;;25.00;99.90;;;;;;5051662;28;20020;-69
2022/04/29 07:22:52;;;;;;;4.05;2.03;;;24.90;99.90;;;;;;4350954;28;10000800;-67
2022/04/29 07:25:19;;;;;;;3.88;1.58;;;24.70;99.90;;;;;;5049002;28;20368;-65
2022/04/29 07:27:48;;;;;;;7.60;5.65;;;24.50;99.90;;;;;;5048682;28;20024;-65
2022/04/29 07:30:15;;;;;;;2.38;2.00;;;24.40;99.90;;;;;;5049871;28;20550;-70
2022/04/29 07:32:42;;;;;;;7.72;4.55;;;24.30;99.90;;;;;;5047460;28;20060;-70
2022/04/29 07:43:26;;;;;;;4.72;2.10;;;23.90;99.90;;;;;;5047552;28;20106;-69
2022/04/29 07:45:53;;;;;;;4.15;2.08;;;23.80;99.90;;;;;;5050547;28;20079;-69
2022/04/29 07:48:22;;;;;;;4.18;2.50;;;23.70;99.90;;;;;;5046895;28;20024;-65
2022/04/29 07:50:49;;;;;;;2.60;2.40;;;23.70;99.90;;;;;;5049285;28;20025;-69
2022/04/29 07:53:16;;;;;;;3.83;2.38;;;23.60;99.90;;;;;;5049456;28;20115;-65
2022/04/29 07:55:44;;;;;;;3.03;2.20;;;23.50;99.90;;;;;;5050729;28;20029;-68
2022/04/29 07:58:12;;;;;;;6.03;2.70;;;23.30;99.90;;;;;;5048248;28;20071;-67
2022/04/29 08:00:42;;;;;;;5.78;3.28;;;23.30;99.90;;;;;;5050396;28;20025;-64
2022/04/29 08:03:10;;;;;;;7.43;2.78;;;23.30;99.90;;;;;;5048315;28;20497;-66
2022/04/29 08:05:37;;;;;;;3.70;2.30;;;23.30;99.90;;;;;;5049375;28;20116;-66
2022/04/29 08:08:04;;;;;;;3.13;2.35;;;23.20;99.90;;;;;;5047757;28;20028;-68
2022/04/29 08:10:36;;;;;;;4.60;3.05;;;23.10;99.90;;;;;;5048718;28;20025;-65
2022/04/29 08:13:06;;;;;;;7.38;2.72;;;23.10;99.90;;;;;;5049262;28;20028;-68
2022/04/29 08:15:33;;;;;;;5.28;2.83;;;23.10;99.90;;;;;;5049824;28;20029;-69
2022/04/29 08:18:00;;;;;;;2.30;2.00;;;22.90;99.90;;;;;;5044635;28;20909;-65
2022/04/29 08:20:27;;;;;;;4.13;2.55;;;22.80;99.90;;;;;;5048133;28;20112;-65
2022/04/29 08:22:54;;;;;;;4.30;2.30;;;22.80;99.90;;;;;;5031321;28;20432;-67
2022/04/29 08:25:21;;;;;;;2.65;2.17;;;22.80;99.90;;;;;;5048337;28;20099;-68
2022/04/29 08:27:50;;;;;;;3.70;2.47;;;22.70;99.90;;;;;;5049451;28;20028;-69
2022/04/29 08:30:18;;;;;;;3.17;2.25;;;22.70;99.90;;;;;;5047847;28;20025;-64
2022/04/29 08:32:46;;;;;;;5.43;2.50;;;22.60;99.90;;;;;;5045638;28;20140;-65
2022/04/29 08:35:14;;;;;;;5.55;2.40;;;22.50;99.90;;;;;;5044936;28;20033;-64
2022/04/29 08:37:43;;;;;;;5.88;2.50;;;22.40;99.90;;;;;;5047782;28;20052;-67
2022/04/29 08:40:11;;;;;;;4.53;2.75;;;22.30;99.90;;;;;;5046175;28;20020;-66
2022/04/29 08:42:40;;;;;;;4.45;2.90;;;22.30;99.90;;;;;;5044966;28;20056;-69
2022/04/29 08:45:13;;;;;;;5.28;2.88;;;22.20;99.90;;;;;;5049378;28;20055;-66
2022/04/29 08:47:42;;;;;;;4.10;2.85;;;22.20;99.90;;;;;;5048931;28;20112;-69
2022/04/29 08:50:15;;;;;;;5.78;2.85;;;22.10;99.90;;;;;;5045361;28;20028;-69
2022/04/29 08:52:43;;;;;;;3.70;3.28;;;22.10;99.90;;;;;;5047222;28;20036;-68
2022/04/29 09:00:42;;;;;;;4.00;3.30;;;22.00;99.90;;;;;;5047797;28;21224;-69
2022/04/29 09:03:22;;;;;;;5.72;5.22;;;22.00;99.90;;;;;;5045329;28;20021;-67
2022/04/29 09:05:50;;;;;;;6.13;4.78;;;22.00;99.90;;;;;;5044721;28;20025;-69
2022/04/29 09:08:20;;;;;;;5.88;4.95;;;21.90;99.90;;;;;;5029815;28;20029;-73
2022/04/29 09:10:56;;;;;;;4.75;2.85;;;21.90;99.90;;;;;;5048699;28;20079;-70
2022/04/29 09:13:30;;;;;;;11.05;6.50;;;22.00;99.90;;;;;;5051794;28;20028;-69
2022/04/29 09:16:12;;;;;;;4.20;3.15;;;21.90;99.90;;;;;;5032643;28;20451;-73
2022/04/29 09:18:46;;;;;;;6.60;5.65;;;21.90;99.90;;;;;;5045311;28;20021;-73
2022/04/29 09:21:17;;;;;;;5.70;4.80;;;21.80;99.90;;;;;;5049281;28;20119;-69
2022/04/29 09:23:56;;;;;;;13.32;11.93;;;21.80;99.90;;;;;;5055410;28;20029;-68
2022/04/29 09:26:28;;;;;;;3.80;3.40;;;21.70;99.90;;;;;;5052201;28;20310;-71
2022/04/29 09:28:55;;;;;;;;;;;21.70;99.90;;;;;;5054765;28;20555;-69
2022/04/29 09:31:22;;;;;;;5.18;4.15;;;21.70;99.90;;;;;;5039055;28;20402;-69
2022/04/29 09:33:58;;;;;;;5.18;2.78;;;21.60;99.90;;;;;;5053184;28;20444;-78
2022/04/29 09:36:27;;;;;;;4.78;3.75;;;21.60;99.90;;;;;;5053272;28;20411;-69
2022/04/29 09:42:00;;;;;;;5.82;3.20;;;21.50;99.90;;;;;;5051864;28;20565;-77
2022/04/29 09:44:28;;;;;;;3.97;3.50;;;21.40;99.90;;;;;;5050985;28;20031;-73
2022/04/29 09:46:55;;;;;;;5.57;3.83;;;21.40;99.90;;;;;;5026612;28;20025;-70
2022/04/29 09:49:30;;;;;;;7.55;6.72;;;21.30;99.90;;;;;;5050122;28;20013;-70
2022/04/29 09:51:57;;;;;;;5.53;4.43;;;21.30;99.90;;;;;;5051097;28;20021;-70
2022/04/29 09:54:35;;;;;;;5.15;3.67;;;21.30;99.90;;;;;;5044892;28;20029;-70
2022/04/29 09:57:05;;;;;;;4.28;3.00;;;21.30;99.90;;;;;;5045022;28;20111;-75
2022/04/29 09:59:38;;;;;;;6.47;3.08;;;21.20;99.90;;;;;;5043741;28;20071;-70
2022/04/29 10:02:06;;;;;;;5.93;3.90;;;21.30;99.90;;;;;;5046476;28;20082;-69
2022/04/29 10:04:35;;;;;;;3.95;3.55;;;21.30;99.90;;;;;;5042782;28;20119;-69
2022/04/29 10:07:07;;;;;;;6.65;4.10;;;21.30;99.90;;;;;;5046343;28;20056;-69
2022/04/29 10:09:36;;;;;;;5.18;4.60;;;21.30;99.90;;;;;;5044596;28;20066;-74
2022/04/29 10:12:05;;;;;;;5.35;3.70;;;21.30;99.90;;;;;;5027106;28;20032;-71
2022/04/29 10:14:36;;;;;;;3.60;3.20;;;21.30;99.90;;;;;;5045924;28;20031;-74
2022/04/29 10:23:08;;;;;;;10.27;3.25;;;21.30;99.90;;;;;;5046034;28;20465;-72
2022/04/29 10:25:40;;;;;;;2.75;2.17;;;21.40;99.90;;;;;;5026468;28;20117;-69
2022/04/29 10:28:08;;;;;;;6.07;2.90;;;21.30;99.90;;;;;;5049055;28;20074;-73
2022/04/29 10:30:40;;;;;;;4.93;2.70;;;21.30;99.90;;;;;;5046578;28;20121;-68
2022/04/29 10:33:11;;;;;;;4.50;3.08;;;21.30;99.90;;;;;;5045733;28;20494;-71
2022/04/29 10:35:50;;;;;;;4.10;2.95;;;21.30;99.90;;;;;;5040594;28;20021;-68
2022/04/29 10:38:23;;;;;;;5.70;2.97;;;21.30;99.90;;;;;;5042193;22;20411;-74
2022/04/29 10:41:17;;;;;;;3.67;2.50;;;21.30;99.90;;;;;;5054168;28;20040;-71
2022/04/29 10:43:48;;;;;;;6.07;3.28;;;21.30;99.90;;;;;;5045725;28;20042;-74
2022/04/29 10:46:20;;;;;;;6.07;3.08;;;21.30;99.90;;;;;;5038800;28;20557;-70
2022/04/29 10:48:52;;;;;;;5.45;3.42;;;21.30;99.90;;;;;;5043341;28;20040;-70
2022/04/29 10:51:28;;;;;;;5.30;3.10;;;21.40;99.90;;;;;;5050714;28;20058;-69
2022/04/29 10:53:56;;;;;;;8.63;3.80;;;21.40;99.90;;;;;;5046806;28;20107;-74
2022/04/29 10:56:32;;;;;;;6.45;3.70;;;21.30;99.90;;;;;;5046972;28;20407;-69
2022/04/29 10:59:13;;;;;;;6.28;3.80;;;21.40;99.90;;;;;;5045624;28;20029;-70
2022/04/29 11:01:50;;;;;;;5.05;3.03;;;21.40;99.90;;;;;;5042964;28;20103;-69
2022/04/29 11:04:17;;;;;;;5.72;2.67;;;21.40;99.90;;;;;;5048085;28;20035;-70
2022/04/29 11:06:49;;;;;;;4.47;2.47;;;21.30;99.90;;;;;;5051092;28;20597;-73
2022/04/29 11:09:30;;;;;;;2.72;2.50;;;21.30;99.90;;;;;;5044099;28;20020;-75
2022/04/29 11:12:00;;;;;;;3.63;2.20;;;21.30;99.90;;;;;;5049363;28;20470;-68
2022/04/29 11:14:27;;;;;;;4.95;2.38;;;21.30;99.90;;;;;;5046845;28;20029;-71
2022/04/29 11:17:09;;;;;;;3.65;2.40;;;21.30;99.90;;;;;;5043679;28;20067;-72
2022/04/29 11:19:40;;;;;;;11.25;7.00;;;21.30;99.90;;;;;;5042843;28;20020;-69
2022/04/29 11:24:53;;;;;;;10.50;5.97;;;21.30;99.90;;;;;;5050122;28;20028;-72
2022/04/29 11:27:34;;;;;;;4.60;3.45;;;21.20;99.90;;;;;;5042325;28;20039;-67
2022/04/29 11:30:02;;;;;;;4.80;2.78;;;21.20;99.90;;;;;;5050955;28;20021;-69
2022/04/29 11:32:30;;;;;;;3.30;2.33;;;21.20;99.90;;;;;;5048761;28;20566;-67
2022/04/29 11:35:05;;;;;;;4.45;2.53;;;21.10;99.90;;;;;;5052428;28;20407;-73
2022/04/29 11:37:34;;;;;;;4.82;2.25;;;21.10;99.90;;;;;;5045243;28;20049;-67
2022/04/29 11:40:06;;;;;;;3.80;2.00;;;21.20;99.90;;;;;;5052296;28;20142;-71
2022/04/29 11:42:33;;;;;;;3.40;2.20;;;21.20;99.90;;;;;;5045718;28;20297;-67
2022/04/29 11:45:08;;;;;;;3.80;2.20;;;21.10;99.90;;;;;;5052313;28;21478;-68
2022/04/29 11:47:36;;;;;;;3.88;2.03;;;21.20;99.90;;;;;;5049877;28;20032;-68
2022/04/29 11:50:04;;;;;;;3.53;1.92;;;21.10;99.90;;;;;;5049589;28;20154;-72
2022/04/29 11:52:33;;;;;;;4.50;2.22;;;21.10;99.90;;;;;;5050486;28;20037;-68
2022/04/29 11:55:02;;;;;;;3.38;2.30;;;21.10;99.90;;;;;;5048394;28;20036;-68
2022/04/29 11:57:31;;;;;;;3.20;2.00;;;21.10;99.90;;;;;;5047593;28;20033;-67
2022/04/29 12:00:02;;;;;;;3.50;2.42;;;21.00;99.90;;;;;;5046108;28;20039;-67
2022/04/29 12:02:29;;;;;;;3.00;2.47;;;21.00;99.90;;;;;;5046759;28;20032;-68
2022/04/29 12:04:59;;;;;;;3.30;2.63;;;21.10;99.90;;;;;;5051211;28;20036;-68
2022/04/29 12:07:28;;;;;;;3.60;2.58;;;21.10;99.90;;;;;;5047096;28;20024;-69
2022/04/29 12:09:55;;;;;;;2.97;2.60;;;21.00;99.90;;;;;;5047883;28;20025;-73
2022/04/29 12:12:30;;;;;;;3.58;2.75;;;21.10;99.90;;;;;;5054096;28;20046;-72
2022/04/29 12:14:59;;;;;;;2.38;1.85;;;21.00;99.90;;;;;;5055153;28;20112;-66
2022/04/29 12:17:38;;;;;;;3.20;2.67;;;21.00;99.90;;;;;;5050281;28;20404;-67
2022/04/29 12:20:14;;;;;;;4.60;2.63;;;21.10;99.90;;;;;;5059412;28;20115;-68
2022/04/29 12:22:47;;;;;;;4.10;2.40;;;21.10;99.90;;;;;;5056339;28;20044;-66
2022/04/29 12:25:38;;;;;;;3.55;2.33;;;21.00;99.90;;;;;;5059681;28;20047;-69
2022/04/29 12:28:21;;;;;;;3.58;2.50;;;21.10;99.90;;;;;;5057849;28;20029;-73
2022/04/29 12:36:31;;;;;;;3.83;2.70;;;21.00;99.90;;;;;;5058734;28;20613;-73
2022/04/29 12:39:05;;;;;;;4.03;2.30;;;21.00;99.90;;;;;;5056482;28;20039;-74
2022/04/29 12:41:33;;;;;;;3.75;2.42;;;21.00;99.90;;;;;;5059509;28;20032;-72
2022/04/29 12:47:03;;;;;;;3.95;2.67;;;21.10;99.90;;;;;;5059001;28;20501;-68
2022/04/29 12:49:31;;;;;;;3.10;2.13;;;21.10;99.90;;;;;;5056565;28;20029;-72
2022/04/29 12:51:59;;;;;;;2.70;2.03;;;21.10;99.90;;;;;;5057650;28;20028;-68
2022/04/29 12:54:27;;;;;;;3.50;2.13;;;21.10;99.90;;;;;;5059218;28;20027;-71
2022/04/29 12:56:54;;;;;;;2.97;1.60;;;21.10;99.90;;;;;;5059169;28;20036;-67
2022/04/29 12:59:25;;;;;;;3.80;2.30;;;21.10;99.90;;;;;;5056980;28;20488;-66
2022/04/29 13:01:53;;;;;;;3.00;2.17;;;21.10;99.90;;;;;;5058416;28;20503;-67
2022/04/29 13:04:20;;;;;;;6.32;2.70;;;21.00;99.90;;;;;;5056387;28;20572;-67
2022/04/29 13:06:48;;;;;;;3.70;2.47;;;21.10;99.90;;;;;;5043424;28;20127;-66
2022/04/29 13:09:15;;;;;;;5.80;2.50;;;21.10;99.90;;;;;;5059962;28;20028;-72
2022/04/29 13:11:45;;;;;;;2.58;2.10;;;21.10;99.90;;;;;;5058953;28;20032;-68
2022/04/29 13:14:17;;;;;;;4.47;2.95;;;21.10;99.90;;;;;;5062855;28;20103;-67
2022/04/29 13:16:44;;;;;;;3.28;2.08;;;21.10;99.90;;;;;;5060587;28;20032;-72
2022/04/29 13:19:12;;;;;;;3.10;2.00;;;21.20;99.90;;;;;;5065857;28;20185;-68
2022/04/29 13:21:39;;;;;;;3.47;1.90;;;21.20;99.90;;;;;;5061577;28;20039;-66
2022/04/29 13:24:07;;;;;;;3.47;2.10;;;21.30;99.90;;;;;;5063613;28;20021;-67
2022/04/29 13:26:35;;;;;;;4.13;2.40;;;21.30;99.90;;;;;;5060738;28;20016;-68
2022/04/29 13:29:03;;;;;;;3.78;2.53;;;21.30;99.90;;;;;;5064783;28;20023;-69
2022/04/29 13:31:30;;;;;;;4.68;3.40;;;21.40;99.90;;;;;;5064035;28;20093;-73
2022/04/29 13:33:57;;;;;;;5.38;4.00;;;21.40;99.90;;;;;;5065320;28;20032;-66
2022/04/29 13:36:25;;;;;;;9.38;5.13;;;21.30;99.90;;;;;;5063415;28;20050;-68